Terminal Aerodrome Forecast
Issued by NWS

Home | Current Version | Previous Version | Text Only | Print | Product List | Glossary On
Versions: 1 2 3 4 5 6 7 8 9 10 11 12 13 14 15 16 17 18 19 20 21 22 23 24 25 26
000
FTUS46 KPDT 180500
TAFBDN
TAF
KBDN 180520Z 1806/1906 20004KT P6SM SCT015 BKN050
     FM180900 VRB03KT 3SM BR OVC040
     FM181500 19009KT P6SM OVC045=

USA.gov is the U.S. government's official web portal to all federal, state and local government web resources and services.